createdAt,value
2022-08-18T00:00:03.951Z,7.03
2022-08-18T00:05:08.208Z,7.32
2022-08-18T00:10:18.216Z,7.28
2022-08-18T00:15:22.856Z,7.28
2022-08-18T00:20:26.709Z,7.35
2022-08-18T00:25:31.600Z,7.40
2022-08-18T00:30:35.318Z,7.13
2022-08-18T00:35:40.006Z,7.38
2022-08-18T00:40:48.539Z,7.60
2022-08-18T00:45:51.872Z,7.45
2022-08-18T00:50:58.512Z,6.90
2022-08-18T00:56:08.642Z,7.40
2022-08-18T01:01:16.553Z,7.20
2022-08-18T01:06:28.939Z,6.88
2022-08-18T01:11:34.418Z,7.20
2022-08-18T01:16:57.463Z,6.63
2022-08-18T01:22:18.637Z,6.63
2022-08-18T01:27:23.574Z,7.30
2022-08-18T01:32:27.809Z,7.32
2022-08-18T01:37:31.261Z,7.35
2022-08-18T01:42:36.980Z,7.20
2022-08-18T01:47:57.341Z,7.00
2022-08-18T01:53:00.688Z,6.85
2022-08-18T01:58:07.095Z,7.60
2022-08-18T02:03:14.587Z,7.10
2022-08-18T02:08:18.128Z,7.55
2022-08-18T02:13:22.939Z,7.23
2022-08-18T02:18:47.547Z,7.72
2022-08-18T02:23:53.353Z,7.30
2022-08-18T02:28:59.015Z,7.80
2022-08-18T02:34:02.751Z,8.07
2022-08-18T02:39:06.205Z,7.70
2022-08-18T02:44:11.105Z,7.83
2022-08-18T02:49:14.388Z,7.28
2022-08-18T02:54:17.879Z,7.60
2022-08-18T02:59:25.448Z,7.30
2022-08-18T03:04:31.373Z,9.00
2022-08-18T03:09:36.258Z,7.47
2022-08-18T03:14:41.179Z,7.75
2022-08-18T03:19:47.744Z,7.78
2022-08-18T03:24:51.375Z,7.70
2022-08-18T03:29:56.688Z,6.93
2022-08-18T03:35:02.389Z,7.97
2022-08-18T03:40:07.776Z,7.50
2022-08-18T03:45:17.548Z,8.35
2022-08-18T03:50:21.958Z,8.00
2022-08-18T03:55:25.312Z,8.10
2022-08-18T04:00:30.716Z,7.90
2022-08-18T04:05:35.105Z,8.68
2022-08-18T04:10:38.449Z,8.05
2022-08-18T04:15:43.113Z,9.48
2022-08-18T04:20:59.757Z,9.73
2022-08-18T04:26:03.953Z,9.63
2022-08-18T04:31:10.981Z,9.98
2022-08-18T04:36:18.779Z,11.30
2022-08-18T04:41:27.077Z,13.93
2022-08-18T04:46:36.188Z,14.00
2022-08-18T04:52:30.879Z,14.40
2022-08-18T04:57:11.276Z,15.82
2022-08-18T05:02:17.097Z,16.42
2022-08-18T05:07:22.825Z,16.45
2022-08-18T05:12:26.814Z,16.98
2022-08-18T05:17:32.261Z,16.27
2022-08-18T05:22:39.257Z,15.55
2022-08-18T05:27:44.378Z,21.35
2022-08-18T05:32:50.559Z,23.23
2022-08-18T05:38:12.139Z,22.45
2022-08-18T05:43:18.220Z,30.17
2022-08-18T05:48:23.011Z,32.53
2022-08-18T05:53:46.377Z,62.15
2022-08-18T05:58:55.534Z,57.20
2022-08-18T06:04:06.249Z,41.75
2022-08-18T06:09:14.955Z,73.80
2022-08-18T06:14:19.186Z,71.70
2022-08-18T06:19:40.369Z,79.05
2022-08-18T06:24:52.699Z,73.28
2022-08-18T06:30:08.734Z,82.22
2022-08-18T06:35:20.431Z,79.40
2022-08-18T06:40:23.882Z,75.28
2022-08-18T06:45:35.848Z,63.38
2022-08-18T06:50:50.282Z,65.57
2022-08-18T06:55:53.661Z,63.67
2022-08-18T07:01:00.297Z,67.25
2022-08-18T07:06:07.830Z,74.32
2022-08-18T07:11:20.296Z,75.10
2022-08-18T07:16:47.105Z,82.00
2022-08-18T07:22:04.179Z,75.43
2022-08-18T07:27:10.556Z,74.07
2022-08-18T07:32:20.822Z,76.28
2022-08-18T07:37:31.119Z,60.63
2022-08-18T07:43:00.840Z,54.13
2022-08-18T07:48:27.408Z,50.83
2022-08-18T07:53:54.315Z,44.67
2022-08-18T07:59:04.892Z,38.33
2022-08-18T08:04:25.454Z,41.55
2022-08-18T08:09:39.235Z,33.28
2022-08-18T08:14:44.481Z,34.38
2022-08-18T08:20:09.154Z,22.05
2022-08-18T08:25:42.636Z,19.58
2022-08-18T08:30:52.422Z,17.52
2022-08-18T08:36:03.833Z,18.02
2022-08-18T08:41:13.416Z,16.60
2022-08-18T08:46:21.188Z,14.85
2022-08-18T08:51:37.417Z,8.63
2022-08-18T08:56:47.828Z,6.60
2022-08-18T09:02:00.228Z,7.35
2022-08-18T09:12:46.648Z,5.60
2022-08-18T09:18:31.756Z,5.82
2022-08-18T09:23:42.458Z,6.10
2022-08-18T09:28:58.560Z,5.72
2022-08-18T09:34:23.240Z,6.85
2022-08-18T09:39:54.625Z,5.05
2022-08-18T09:45:04.291Z,4.55
2022-08-18T09:50:41.071Z,4.10
2022-08-18T09:56:04.833Z,4.80
2022-08-18T10:01:36.719Z,4.00
2022-08-18T10:06:42.975Z,4.43
2022-08-18T10:12:15.911Z,4.10
2022-08-18T10:17:44.775Z,4.35
2022-08-18T10:22:54.179Z,5.25
2022-08-18T10:27:58.249Z,3.92
2022-08-18T10:33:17.624Z,3.80
2022-08-18T10:43:55.503Z,3.85
2022-08-18T10:49:07.082Z,4.07
2022-08-18T10:54:20.009Z,4.30
2022-08-18T10:59:49.022Z,4.35
2022-08-18T11:04:59.206Z,4.00
2022-08-18T11:10:57.490Z,4.22
2022-08-18T11:15:53.639Z,4.13
2022-08-18T11:21:23.759Z,3.90
2022-08-18T11:26:31.431Z,3.78
2022-08-18T11:31:34.886Z,4.20
2022-08-18T11:36:49.929Z,3.70
2022-08-18T11:41:53.797Z,4.07
2022-08-18T11:47:08.960Z,4.18
2022-08-18T11:52:26.231Z,5.10
2022-08-18T11:57:53.192Z,4.40
2022-08-18T12:03:03.174Z,4.13
2022-08-18T12:08:50.534Z,3.65
2022-08-18T12:13:45.141Z,3.50
2022-08-18T12:18:49.441Z,4.25
2022-08-18T12:23:58.585Z,3.80
2022-08-18T12:29:02.268Z,3.72
2022-08-18T12:34:06.561Z,3.58
2022-08-18T12:39:18.762Z,3.60
2022-08-18T12:44:24.339Z,3.30
2022-08-18T12:49:31.645Z,3.35
2022-08-18T12:54:38.979Z,3.58
2022-08-18T12:59:58.888Z,3.47
2022-08-18T13:05:03.058Z,2.92
2022-08-18T13:10:35.778Z,3.28
2022-08-18T13:15:36.900Z,2.97
2022-08-18T13:20:40.381Z,3.13
2022-08-18T13:25:49.921Z,3.13
2022-08-18T13:30:54.147Z,2.88
2022-08-18T13:35:58.883Z,2.80
2022-08-18T13:41:06.353Z,3.13
2022-08-18T13:46:12.344Z,3.15
2022-08-18T13:51:22.298Z,3.20
2022-08-18T13:56:31.337Z,3.28
2022-08-18T14:01:44.297Z,2.95
2022-08-18T14:06:58.835Z,3.08
2022-08-18T14:12:15.852Z,3.22
2022-08-18T14:17:27.382Z,3.30
2022-08-18T14:22:48.482Z,3.20
2022-08-18T14:27:56.726Z,2.80
2022-08-18T14:33:01.001Z,2.90
2022-08-18T14:38:07.316Z,2.67
2022-08-18T14:43:16.353Z,2.72
2022-08-18T14:48:22.451Z,2.90
2022-08-18T14:53:29.743Z,2.60
2022-08-18T14:58:37.634Z,2.60
2022-08-18T15:03:42.570Z,2.50
2022-08-18T15:08:47.021Z,2.58
2022-08-18T15:13:55.529Z,2.50
2022-08-18T15:18:59.099Z,3.05
2022-08-18T15:24:20.659Z,2.63
2022-08-18T15:29:29.180Z,2.72
2022-08-18T15:34:33.063Z,2.95
2022-08-18T15:39:51.915Z,2.78
2022-08-18T15:45:12.009Z,2.90
2022-08-18T15:50:26.052Z,2.55
2022-08-18T15:55:35.731Z,3.17
2022-08-18T16:00:45.391Z,3.00
2022-08-18T16:05:52.909Z,3.20
2022-08-18T16:10:56.978Z,3.60
2022-08-18T16:16:01.836Z,4.25
2022-08-18T16:21:11.312Z,3.60
2022-08-18T16:31:28.521Z,3.28
2022-08-18T16:36:32.243Z,3.63
2022-08-18T16:41:35.905Z,4.80
2022-08-18T16:46:40.834Z,4.07
2022-08-18T16:51:44.860Z,3.65
2022-08-18T16:56:48.275Z,3.33
2022-08-18T17:02:10.213Z,3.60
2022-08-18T17:07:14.084Z,3.83
2022-08-18T17:12:17.726Z,4.47
2022-08-18T17:17:22.715Z,3.53
2022-08-18T17:22:26.290Z,4.20
2022-08-18T17:27:37.868Z,4.38
2022-08-18T17:32:47.861Z,4.25
2022-08-18T17:37:59.348Z,3.97
2022-08-18T17:43:03.226Z,4.22
2022-08-18T17:48:15.649Z,3.67
2022-08-18T17:53:19.095Z,3.85
2022-08-18T17:58:29.595Z,3.85
2022-08-18T18:03:34.611Z,3.60
2022-08-18T18:08:51.953Z,3.88
2022-08-18T18:13:55.997Z,4.28
2022-08-18T18:19:04.345Z,3.88
2022-08-18T18:24:16.354Z,4.20
2022-08-18T18:29:29.358Z,4.30
2022-08-18T18:34:39.753Z,4.00
2022-08-18T18:39:58.405Z,3.60
2022-08-18T18:45:03.719Z,3.78
2022-08-18T18:50:17.421Z,3.80
2022-08-18T18:55:27.003Z,3.97
2022-08-18T19:00:38.298Z,4.18
2022-08-18T19:05:48.579Z,4.13
2022-08-18T19:10:58.902Z,4.43
2022-08-18T19:16:23.338Z,5.10
2022-08-18T19:22:03.431Z,4.75
2022-08-18T19:26:58.016Z,5.15
2022-08-18T19:32:07.160Z,5.80
2022-08-18T19:37:27.242Z,5.20
2022-08-18T19:42:40.073Z,5.78
2022-08-18T19:47:51.013Z,5.65
2022-08-18T19:53:14.616Z,5.43
2022-08-18T19:59:12.987Z,5.90
2022-08-18T20:04:26.269Z,5.68
2022-08-18T20:09:50.217Z,5.30
2022-08-18T20:15:02.409Z,5.70
2022-08-18T20:20:13.997Z,6.87
2022-08-18T20:25:41.580Z,7.18
2022-08-18T20:30:58.531Z,6.20
2022-08-18T20:36:29.998Z,6.25
2022-08-18T20:41:47.288Z,6.85
2022-08-18T20:47:05.367Z,6.95
2022-08-18T20:52:19.611Z,6.78
2022-08-18T20:57:38.094Z,7.03
2022-08-18T21:02:47.362Z,7.00
2022-08-18T21:08:03.576Z,6.40
2022-08-18T21:13:08.382Z,8.13
2022-08-18T21:18:23.123Z,7.53
2022-08-18T21:23:30.825Z,7.60
2022-08-18T21:28:39.391Z,7.90
2022-08-18T21:33:50.855Z,7.38
2022-08-18T21:39:03.395Z,7.05
2022-08-18T21:44:18.122Z,7.45
2022-08-18T21:49:27.161Z,7.10
2022-08-18T21:54:34.365Z,7.85
2022-08-18T22:00:12.743Z,7.60
2022-08-18T22:05:28.385Z,7.60
2022-08-18T22:10:50.930Z,7.40
2022-08-18T22:15:56.117Z,7.70
2022-08-18T22:21:00.970Z,7.57
2022-08-18T22:26:12.484Z,7.65
2022-08-18T22:31:21.029Z,8.60
2022-08-18T22:36:28.450Z,8.15
2022-08-18T22:41:32.318Z,7.57
2022-08-18T22:46:37.714Z,8.57
2022-08-18T22:51:41.287Z,7.47
2022-08-18T22:56:53.827Z,7.90
2022-08-18T23:02:01.510Z,7.85
2022-08-18T23:07:05.000Z,8.48
2022-08-18T23:12:13.769Z,8.10
2022-08-18T23:17:18.985Z,8.10
2022-08-18T23:22:22.543Z,7.68
2022-08-18T23:27:25.963Z,8.20
2022-08-18T23:32:32.188Z,8.23
2022-08-18T23:37:35.757Z,8.15
2022-08-18T23:42:39.188Z,8.47
2022-08-18T23:47:44.008Z,8.17
2022-08-18T23:52:47.922Z,8.10
2022-08-18T23:57:53.022Z,7.82
